createdAt,value
2019-03-20T00:00:40.198Z,99.90
2019-03-20T00:03:08.707Z,99.90
2019-03-20T00:05:37.151Z,99.90
2019-03-20T00:08:05.773Z,99.90
2019-03-20T00:10:34.289Z,99.90
2019-03-20T00:13:02.738Z,99.90
2019-03-20T00:15:31.566Z,99.90
2019-03-20T00:18:00.015Z,99.90
2019-03-20T00:20:28.533Z,99.90
2019-03-20T00:22:57.082Z,99.90
2019-03-20T00:25:25.528Z,99.90
2019-03-20T00:27:54.043Z,99.90
2019-03-20T00:30:22.591Z,99.90
2019-03-20T00:32:51.028Z,99.90
2019-03-20T00:35:19.474Z,99.90
2019-03-20T00:37:48.114Z,99.90
2019-03-20T00:40:17.304Z,99.90
2019-03-20T00:42:46.179Z,99.90
2019-03-20T00:45:17.388Z,99.90
2019-03-20T00:47:45.994Z,99.90
2019-03-20T00:50:15.876Z,99.90
2019-03-20T00:52:44.677Z,99.90
2019-03-20T00:55:16.979Z,99.90
2019-03-20T00:57:45.790Z,99.90
2019-03-20T01:00:19.978Z,99.90
2019-03-20T01:02:48.495Z,99.90
2019-03-20T01:05:17.378Z,99.90
2019-03-20T01:07:46.217Z,99.90
2019-03-20T01:10:19.615Z,99.90
2019-03-20T01:12:48.418Z,99.90
2019-03-20T01:15:17.043Z,99.90
2019-03-20T01:17:45.995Z,99.90
2019-03-20T01:20:24.840Z,99.90
2019-03-20T01:22:53.618Z,99.90
2019-03-20T01:25:22.159Z,99.90
2019-03-20T01:27:50.710Z,99.90
2019-03-20T01:30:34.963Z,99.90
2019-03-20T01:33:05.802Z,99.90
2019-03-20T01:35:34.320Z,99.90
2019-03-20T01:38:02.921Z,99.90
2019-03-20T01:40:31.463Z,99.90
2019-03-20T01:42:59.981Z,99.90
2019-03-20T01:45:28.561Z,99.90
2019-03-20T01:47:57.170Z,99.90
2019-03-20T01:50:25.682Z,99.90
2019-03-20T01:52:54.128Z,99.90
2019-03-20T01:55:22.806Z,99.90
2019-03-20T01:57:51.386Z,99.90
2019-03-20T02:00:20.890Z,99.90
2019-03-20T02:02:49.711Z,99.90
2019-03-20T02:05:18.296Z,99.90
2019-03-20T02:07:46.741Z,99.90
2019-03-20T02:10:16.421Z,99.90
2019-03-20T02:12:44.880Z,99.90
2019-03-20T02:15:17.583Z,99.90
2019-03-20T02:17:46.059Z,99.90
2019-03-20T02:20:17.105Z,99.90
2019-03-20T02:22:45.626Z,99.90
2019-03-20T02:25:14.650Z,99.90
2019-03-20T02:27:43.103Z,99.90
2019-03-20T02:30:21.007Z,99.90
2019-03-20T02:32:49.540Z,99.90
2019-03-20T02:35:18.099Z,99.90
2019-03-20T02:37:50.066Z,99.90
2019-03-20T02:40:18.592Z,99.90
2019-03-20T02:42:47.219Z,99.90
2019-03-20T02:45:16.612Z,99.90
2019-03-20T02:47:45.239Z,99.90
2019-03-20T02:50:15.145Z,99.90
2019-03-20T02:52:43.600Z,99.90
2019-03-20T02:55:12.914Z,99.90
2019-03-20T02:57:41.488Z,99.90
2019-03-20T03:00:17.845Z,99.90
2019-03-20T03:02:46.442Z,99.90
2019-03-20T03:05:16.209Z,99.90
2019-03-20T03:07:44.875Z,99.90
2019-03-20T03:10:17.236Z,99.90
2019-03-20T03:12:46.231Z,99.90
2019-03-20T03:15:15.947Z,99.90
2019-03-20T03:17:44.874Z,99.90
2019-03-20T03:20:16.676Z,99.90
2019-03-20T03:22:45.364Z,99.90
2019-03-20T03:25:14.952Z,99.90
2019-03-20T03:27:43.473Z,99.90
2019-03-20T03:30:14.406Z,99.90
2019-03-20T03:32:43.165Z,99.90
2019-03-20T03:35:17.338Z,99.90
2019-03-20T03:37:42.546Z,99.90
2019-03-20T03:40:15.708Z,99.90
2019-03-20T03:42:44.237Z,99.90
2019-03-20T03:45:14.204Z,99.90
2019-03-20T03:47:42.866Z,99.90
2019-03-20T03:50:12.155Z,99.90
2019-03-20T03:52:40.650Z,99.90
2019-03-20T03:55:14.464Z,99.90
2019-03-20T03:57:43.227Z,99.90
2019-03-20T04:00:17.738Z,99.90
2019-03-20T04:02:46.441Z,99.90
2019-03-20T04:05:15.183Z,99.90
2019-03-20T04:07:43.646Z,99.90
2019-03-20T04:10:16.738Z,99.90
2019-03-20T04:12:45.327Z,99.90
2019-03-20T04:15:17.444Z,99.90
2019-03-20T04:17:46.064Z,99.90
2019-03-20T04:20:19.019Z,99.90
2019-03-20T04:22:47.767Z,99.90
2019-03-20T04:25:16.636Z,99.90
2019-03-20T04:27:45.088Z,99.90
2019-03-20T04:30:17.500Z,99.90
2019-03-20T04:32:46.123Z,99.90
2019-03-20T04:35:15.289Z,99.90
2019-03-20T04:37:43.960Z,99.90
2019-03-20T04:40:14.277Z,99.90
2019-03-20T04:42:42.752Z,99.90
2019-03-20T04:45:17.748Z,99.90
2019-03-20T04:47:46.669Z,99.90
2019-03-20T04:50:16.163Z,99.90
2019-03-20T04:52:44.687Z,99.90
2019-03-20T04:55:13.361Z,99.90
2019-03-20T04:57:41.890Z,99.90
2019-03-20T05:00:21.340Z,99.90
2019-03-20T05:02:49.778Z,99.90
2019-03-20T05:05:18.294Z,99.90
2019-03-20T05:07:46.889Z,99.90
2019-03-20T05:10:19.277Z,99.90
2019-03-20T05:12:47.744Z,99.90
2019-03-20T05:15:16.214Z,99.90
2019-03-20T05:17:44.666Z,99.90
2019-03-20T05:20:18.173Z,99.90
2019-03-20T05:22:46.662Z,99.90
2019-03-20T05:25:15.176Z,99.90
2019-03-20T05:27:43.754Z,99.90
2019-03-20T05:30:16.145Z,99.90
2019-03-20T05:32:44.612Z,99.90
2019-03-20T05:35:13.307Z,99.90
2019-03-20T05:37:41.989Z,99.90
2019-03-20T05:40:15.013Z,99.90
2019-03-20T05:42:43.531Z,99.90
2019-03-20T05:45:16.322Z,99.90
2019-03-20T05:47:45.059Z,99.90
2019-03-20T05:50:14.446Z,99.90
2019-03-20T05:52:42.971Z,99.90
2019-03-20T05:55:11.770Z,99.90
2019-03-20T05:57:40.303Z,99.90
2019-03-20T06:00:16.058Z,99.90
2019-03-20T06:02:44.587Z,99.90
2019-03-20T06:05:13.203Z,99.90
2019-03-20T06:07:41.758Z,99.90
2019-03-20T06:10:16.185Z,99.90
2019-03-20T06:12:44.727Z,99.90
2019-03-20T06:15:14.239Z,99.90
2019-03-20T06:17:42.854Z,99.90
2019-03-20T06:20:12.942Z,99.90
2019-03-20T06:22:41.499Z,99.90
2019-03-20T06:25:12.628Z,99.90
2019-03-20T06:27:41.290Z,99.90
2019-03-20T06:30:13.135Z,99.90
2019-03-20T06:32:41.575Z,99.90
2019-03-20T06:35:10.551Z,99.90
2019-03-20T06:37:39.023Z,99.90
2019-03-20T06:40:10.175Z,99.90
2019-03-20T06:42:38.638Z,99.90
2019-03-20T06:45:10.522Z,99.90
2019-03-20T06:47:38.967Z,99.90
2019-03-20T06:50:10.492Z,99.90
2019-03-20T06:52:39.106Z,99.90
2019-03-20T06:55:08.887Z,99.90
2019-03-20T06:57:37.330Z,99.90
2019-03-20T07:00:38.666Z,99.90
2019-03-20T07:03:10.200Z,99.90
2019-03-20T07:05:57.073Z,99.90
2019-03-20T07:08:28.619Z,99.90
2019-03-20T07:11:07.505Z,99.90
2019-03-20T07:13:36.014Z,99.90
2019-03-20T07:16:05.202Z,99.90
2019-03-20T07:18:33.670Z,99.90
2019-03-20T07:21:02.124Z,99.90
2019-03-20T07:23:30.570Z,99.90
2019-03-20T07:25:59.105Z,99.90
2019-03-20T07:28:27.554Z,99.90
2019-03-20T07:30:56.170Z,99.90
2019-03-20T07:33:24.742Z,99.90
2019-03-20T07:35:53.359Z,99.90
2019-03-20T07:38:22.172Z,99.90
2019-03-20T07:40:50.792Z,99.90
2019-03-20T07:43:19.306Z,99.90
2019-03-20T07:45:47.760Z,99.90
2019-03-20T07:48:21.931Z,99.90
2019-03-20T07:50:46.495Z,99.10
2019-03-20T07:53:14.951Z,97.40
2019-03-20T07:55:43.651Z,94.50
2019-03-20T07:58:12.091Z,93.30
2019-03-20T08:00:40.540Z,93.00
2019-03-20T08:03:09.018Z,90.60
2019-03-20T08:05:37.461Z,84.10
2019-03-20T08:08:07.541Z,80.30
2019-03-20T08:10:36.097Z,80.30
2019-03-20T08:13:04.791Z,76.30
2019-03-20T08:15:33.314Z,74.00
2019-03-20T08:18:01.782Z,69.00
2019-03-20T08:20:31.168Z,69.30
2019-03-20T08:22:59.683Z,64.20
2019-03-20T08:25:28.178Z,63.80
2019-03-20T08:27:56.633Z,61.20
2019-03-20T08:30:25.074Z,61.80
2019-03-20T08:32:53.540Z,61.20
2019-03-20T08:35:21.994Z,59.10
2019-03-20T08:37:50.438Z,60.00
2019-03-20T08:40:19.573Z,58.10
2019-03-20T08:42:48.169Z,57.10
2019-03-20T08:45:17.757Z,56.30
2019-03-20T08:47:46.897Z,58.10
2019-03-20T08:50:19.962Z,56.90
2019-03-20T08:52:48.476Z,54.20
2019-03-20T08:55:20.653Z,55.00
2019-03-20T08:57:49.391Z,56.40
2019-03-20T09:00:22.054Z,56.00
2019-03-20T09:02:51.085Z,51.80
2019-03-20T09:05:19.665Z,52.30
2019-03-20T09:07:48.354Z,51.70
2019-03-20T09:10:21.738Z,50.60
2019-03-20T09:12:50.196Z,52.00
2019-03-20T09:15:19.686Z,49.50
2019-03-20T09:17:48.338Z,48.50
2019-03-20T09:20:22.467Z,47.70
2019-03-20T09:22:50.983Z,47.90
2019-03-20T09:25:23.406Z,45.70
2019-03-20T09:27:52.018Z,43.80
2019-03-20T09:30:27.457Z,42.00
2019-03-20T09:32:56.047Z,41.30
2019-03-20T09:35:24.567Z,40.50
2019-03-20T09:37:53.051Z,41.50
2019-03-20T09:40:23.801Z,40.30
2019-03-20T09:42:52.493Z,40.40
2019-03-20T09:45:22.165Z,41.20
2019-03-20T09:47:50.690Z,47.30
2019-03-20T09:50:21.414Z,47.60
2019-03-20T09:52:50.132Z,43.20
2019-03-20T09:55:18.875Z,43.50
2019-03-20T09:57:47.391Z,43.60
2019-03-20T10:00:24.301Z,43.20
2019-03-20T10:02:53.389Z,41.20
2019-03-20T10:05:22.080Z,41.10
2019-03-20T10:07:50.706Z,41.50
2019-03-20T10:10:27.076Z,43.90
2019-03-20T10:12:55.974Z,42.30
2019-03-20T10:15:29.235Z,42.40
2019-03-20T10:17:57.833Z,43.20
2019-03-20T10:20:26.781Z,40.30
2019-03-20T10:22:55.226Z,38.60
2019-03-20T10:25:23.743Z,37.00
2019-03-20T10:27:52.316Z,37.30
2019-03-20T10:30:25.036Z,36.50
2019-03-20T10:32:53.565Z,35.90
2019-03-20T10:35:22.113Z,35.00
2019-03-20T10:37:50.643Z,35.30
2019-03-20T10:40:29.099Z,33.50
2019-03-20T10:42:57.539Z,33.70
2019-03-20T10:45:25.986Z,34.70
2019-03-20T10:47:54.574Z,33.10
2019-03-20T10:50:26.924Z,32.90
2019-03-20T10:52:55.425Z,32.20
2019-03-20T10:55:24.029Z,32.90
2019-03-20T10:57:52.621Z,31.80
2019-03-20T11:00:28.516Z,32.20
2019-03-20T11:02:57.246Z,33.10
2019-03-20T11:05:25.768Z,33.40
2019-03-20T11:07:54.710Z,31.90
2019-03-20T11:10:29.342Z,31.10
2019-03-20T11:12:58.137Z,31.70
2019-03-20T11:15:29.377Z,33.80
2019-03-20T11:17:57.213Z,32.40
2019-03-20T11:20:25.991Z,32.10
2019-03-20T11:22:54.471Z,29.80
2019-03-20T11:25:26.770Z,31.70
2019-03-20T11:27:55.359Z,32.30
2019-03-20T11:30:28.134Z,31.90
2019-03-20T11:32:57.130Z,29.40
2019-03-20T11:35:25.918Z,32.50
2019-03-20T11:37:54.574Z,31.90
2019-03-20T11:40:33.858Z,30.30
2019-03-20T11:43:02.485Z,32.20
2019-03-20T11:45:31.000Z,29.90
2019-03-20T11:47:59.446Z,29.30
2019-03-20T11:50:36.452Z,29.90
2019-03-20T11:53:06.343Z,32.20
2019-03-20T11:55:34.873Z,33.70
2019-03-20T11:58:03.724Z,35.70
2019-03-20T12:00:32.306Z,34.20
2019-03-20T12:03:00.769Z,33.90
2019-03-20T12:05:29.317Z,34.60
2019-03-20T12:07:57.897Z,33.30
2019-03-20T12:10:27.586Z,32.30
2019-03-20T12:12:56.206Z,30.00
2019-03-20T12:15:24.893Z,30.40
2019-03-20T12:17:53.350Z,32.70
2019-03-20T12:20:23.929Z,32.10
2019-03-20T12:22:52.912Z,32.40
2019-03-20T12:25:35.255Z,32.40
2019-03-20T12:28:03.775Z,31.10
2019-03-20T12:30:33.583Z,32.10
2019-03-20T12:33:02.184Z,34.60
2019-03-20T12:35:39.002Z,35.20
2019-03-20T12:38:14.231Z,34.90
2019-03-20T12:40:37.667Z,33.50
2019-03-20T12:43:06.732Z,31.40
2019-03-20T12:45:36.166Z,30.10
2019-03-20T12:48:09.212Z,30.50
2019-03-20T12:50:37.654Z,31.60
2019-03-20T12:53:08.053Z,31.60
2019-03-20T12:55:36.635Z,31.00
2019-03-20T12:58:05.354Z,29.00
2019-03-20T13:00:34.071Z,28.60
2019-03-20T13:03:02.529Z,29.10
2019-03-20T13:05:31.063Z,29.10
2019-03-20T13:08:05.690Z,31.40
2019-03-20T13:10:29.940Z,29.50
2019-03-20T13:12:58.569Z,29.20
2019-03-20T13:15:28.142Z,28.80
2019-03-20T13:17:57.225Z,27.70
2019-03-20T13:20:26.181Z,28.60
2019-03-20T13:23:06.874Z,29.60
2019-03-20T13:25:35.457Z,29.80
2019-03-20T13:28:03.978Z,29.60
2019-03-20T13:30:41.663Z,29.30
2019-03-20T13:33:10.183Z,27.60
2019-03-20T13:35:38.708Z,27.10
2019-03-20T13:38:07.262Z,26.30
2019-03-20T13:40:35.701Z,25.60
2019-03-20T13:43:04.562Z,25.80
2019-03-20T13:45:33.065Z,26.20
2019-03-20T13:48:01.578Z,26.00
2019-03-20T13:50:30.027Z,27.00
2019-03-20T13:52:58.505Z,29.00
2019-03-20T13:55:27.022Z,28.80
2019-03-20T13:57:55.465Z,28.70
2019-03-20T14:00:27.536Z,28.40
2019-03-20T14:02:56.042Z,28.00
2019-03-20T14:05:24.630Z,27.00
2019-03-20T14:07:53.102Z,26.80
2019-03-20T14:10:25.862Z,25.10
2019-03-20T14:12:54.496Z,25.90
2019-03-20T14:15:23.046Z,25.60
2019-03-20T14:17:51.638Z,26.20
2019-03-20T14:20:24.570Z,27.70
2019-03-20T14:22:53.059Z,27.50
2019-03-20T14:25:22.148Z,27.20
2019-03-20T14:27:51.841Z,27.20
2019-03-20T14:30:31.899Z,27.90
2019-03-20T14:33:00.421Z,26.20
2019-03-20T14:35:28.933Z,26.50
2019-03-20T14:37:57.517Z,26.90
2019-03-20T14:40:35.258Z,25.70
2019-03-20T14:42:58.935Z,26.40
2019-03-20T14:45:27.574Z,26.00
2019-03-20T14:47:56.026Z,27.20
2019-03-20T14:50:32.446Z,27.30
2019-03-20T14:53:01.032Z,26.80
2019-03-20T14:55:29.615Z,27.00
2019-03-20T14:57:58.158Z,26.50
2019-03-20T15:00:31.466Z,26.50
2019-03-20T15:02:59.983Z,26.80
2019-03-20T15:05:28.891Z,25.50
2019-03-20T15:07:57.366Z,25.90
2019-03-20T15:10:26.658Z,25.40
2019-03-20T15:12:55.919Z,25.50
2019-03-20T15:15:51.393Z,25.60
2019-03-20T15:18:19.862Z,26.10
2019-03-20T15:20:48.310Z,26.50
2019-03-20T15:23:16.759Z,27.80
2019-03-20T15:25:45.398Z,26.70
2019-03-20T15:28:13.924Z,26.50
2019-03-20T15:30:42.366Z,26.30
2019-03-20T15:33:10.843Z,26.10
2019-03-20T15:35:39.358Z,26.40
2019-03-20T15:38:07.822Z,26.20
2019-03-20T15:40:36.382Z,26.90
2019-03-20T15:43:05.069Z,27.20
2019-03-20T15:45:33.590Z,27.90
2019-03-20T15:48:02.198Z,27.30
2019-03-20T15:50:30.655Z,27.10
2019-03-20T15:52:59.107Z,26.50
2019-03-20T15:55:39.058Z,26.50
2019-03-20T15:58:07.521Z,26.70
2019-03-20T16:00:35.974Z,27.90
2019-03-20T16:03:13.790Z,28.50
2019-03-20T16:05:42.238Z,29.10
2019-03-20T16:08:10.830Z,29.40
2019-03-20T16:10:39.311Z,28.30
2019-03-20T16:13:07.764Z,27.90
2019-03-20T16:15:36.279Z,27.10
2019-03-20T16:18:04.979Z,27.40
2019-03-20T16:20:33.506Z,28.40
2019-03-20T16:23:02.022Z,30.70
2019-03-20T16:25:30.495Z,33.40
2019-03-20T16:27:58.938Z,36.00
2019-03-20T16:30:31.741Z,38.20
2019-03-20T16:33:00.277Z,42.20
2019-03-20T16:35:28.725Z,42.80
2019-03-20T16:37:57.242Z,44.60
2019-03-20T16:40:33.822Z,45.00
2019-03-20T16:43:02.269Z,45.20
2019-03-20T16:45:35.658Z,45.90
2019-03-20T16:48:05.070Z,46.60
2019-03-20T16:50:33.582Z,47.70
2019-03-20T16:53:02.130Z,48.30
2019-03-20T16:55:30.734Z,49.20
2019-03-20T16:57:59.199Z,49.90
2019-03-20T17:00:32.510Z,50.90
2019-03-20T17:03:01.415Z,52.10
2019-03-20T17:05:31.170Z,52.10
2019-03-20T17:07:59.689Z,53.20
2019-03-20T17:10:37.339Z,53.10
2019-03-20T17:13:06.403Z,53.50
2019-03-20T17:15:39.163Z,54.00
2019-03-20T17:18:08.197Z,54.50
2019-03-20T17:20:36.849Z,54.30
2019-03-20T17:23:07.687Z,55.40
2019-03-20T17:25:36.209Z,57.40
2019-03-20T17:28:05.330Z,56.90
2019-03-20T17:30:38.901Z,60.80
2019-03-20T17:33:08.087Z,59.90
2019-03-20T17:35:36.541Z,58.90
2019-03-20T17:38:05.698Z,60.00
2019-03-20T17:40:34.340Z,59.80
2019-03-20T17:43:02.890Z,64.20
2019-03-20T17:45:31.806Z,64.80
2019-03-20T17:48:00.247Z,66.10
2019-03-20T17:50:29.730Z,72.50
2019-03-20T17:52:58.525Z,76.20
2019-03-20T17:55:27.375Z,78.50
2019-03-20T17:57:55.921Z,86.60
2019-03-20T18:00:37.332Z,89.70
2019-03-20T18:03:06.854Z,89.60
2019-03-20T18:05:35.930Z,90.40
2019-03-20T18:08:05.981Z,90.60
2019-03-20T18:10:34.582Z,92.10
2019-03-20T18:13:03.235Z,92.40
2019-03-20T18:15:32.033Z,92.90
2019-03-20T18:18:00.480Z,93.00
2019-03-20T18:20:29.062Z,93.10
2019-03-20T18:22:57.530Z,93.20
2019-03-20T18:25:25.974Z,94.10
2019-03-20T18:27:54.579Z,94.90
2019-03-20T18:30:24.159Z,94.20
2019-03-20T18:32:52.602Z,94.90
2019-03-20T18:35:21.214Z,95.30
2019-03-20T18:37:49.714Z,95.40
2019-03-20T18:40:20.628Z,95.70
2019-03-20T18:42:49.151Z,96.00
2019-03-20T18:45:25.918Z,96.30
2019-03-20T18:47:54.434Z,96.80
2019-03-20T18:50:23.692Z,96.70
2019-03-20T18:52:52.308Z,96.60
2019-03-20T18:55:20.958Z,97.20
2019-03-20T18:57:49.849Z,97.10
2019-03-20T19:00:32.951Z,96.50
2019-03-20T19:03:13.282Z,96.90
2019-03-20T19:06:02.890Z,96.80
2019-03-20T19:08:31.466Z,96.80
2019-03-20T19:11:00.066Z,96.90
2019-03-20T19:13:28.590Z,97.90
2019-03-20T19:15:57.307Z,98.30
2019-03-20T19:18:25.894Z,98.30
2019-03-20T19:20:54.476Z,98.30
2019-03-20T19:23:23.100Z,98.60
2019-03-20T19:25:51.643Z,99.20
2019-03-20T19:28:20.273Z,99.00
2019-03-20T19:30:48.843Z,99.30
2019-03-20T19:33:17.281Z,99.60
2019-03-20T19:35:45.738Z,99.50
2019-03-20T19:38:14.375Z,99.20
2019-03-20T19:40:42.819Z,98.80
2019-03-20T19:43:11.262Z,98.80
2019-03-20T19:45:39.758Z,99.10
2019-03-20T19:48:08.202Z,98.50
2019-03-20T19:50:36.652Z,98.60
2019-03-20T19:53:05.251Z,98.10
2019-03-20T19:55:33.758Z,97.60
2019-03-20T19:58:02.215Z,97.30
2019-03-20T20:00:31.027Z,97.50
2019-03-20T20:02:59.569Z,97.30
2019-03-20T20:05:28.369Z,96.80
2019-03-20T20:07:57.022Z,97.00
2019-03-20T20:10:25.468Z,97.50
2019-03-20T20:12:53.986Z,98.20
2019-03-20T20:15:27.419Z,98.90
2019-03-20T20:17:55.929Z,98.80
2019-03-20T20:20:25.910Z,99.10
2019-03-20T20:22:54.390Z,99.30
2019-03-20T20:25:23.017Z,99.50
2019-03-20T20:27:51.459Z,99.90
2019-03-20T20:30:20.444Z,99.90
2019-03-20T20:32:48.887Z,99.70
2019-03-20T20:35:17.779Z,99.50
2019-03-20T20:37:47.272Z,98.80
2019-03-20T20:40:18.900Z,99.60
2019-03-20T20:42:47.345Z,98.90
2019-03-20T20:45:16.123Z,99.10
2019-03-20T20:47:44.648Z,98.40
2019-03-20T20:50:14.411Z,98.50
2019-03-20T20:52:43.337Z,98.60
2019-03-20T20:55:13.724Z,98.10
2019-03-20T20:57:42.168Z,97.90
2019-03-20T21:00:13.991Z,97.70
2019-03-20T21:02:42.516Z,97.40
2019-03-20T21:05:11.126Z,97.90
2019-03-20T21:07:39.737Z,98.30
2019-03-20T21:10:16.317Z,98.20
2019-03-20T21:15:29.575Z,97.90
2019-03-20T21:18:16.527Z,98.60
2019-03-20T21:20:45.900Z,98.30
2019-03-20T21:23:40.245Z,98.90
2019-03-20T21:26:17.831Z,99.10
2019-03-20T21:29:11.970Z,98.70
2019-03-20T21:31:43.798Z,98.60
2019-03-20T21:34:24.287Z,99.10
2019-03-20T21:37:15.593Z,99.50
2019-03-20T21:39:44.131Z,99.40
2019-03-20T21:42:34.002Z,99.50
2019-03-20T21:45:40.930Z,99.90
2019-03-20T21:48:09.440Z,99.90
2019-03-20T21:50:56.403Z,99.60
2019-03-20T21:53:46.185Z,99.80
2019-03-20T21:56:29.097Z,99.90
2019-03-20T21:59:23.353Z,99.90
2019-03-20T22:02:28.934Z,99.90
2019-03-20T22:04:57.385Z,99.90
2019-03-20T22:07:25.830Z,99.90
2019-03-20T22:10:06.306Z,99.90
2019-03-20T22:12:59.115Z,99.70
2019-03-20T22:15:30.738Z,99.30
2019-03-20T22:18:20.313Z,99.90
2019-03-20T22:21:10.014Z,99.90
2019-03-20T22:23:44.218Z,99.90
2019-03-20T22:26:33.562Z,99.90
2019-03-20T22:29:27.057Z,99.90
2019-03-20T22:32:04.575Z,99.90
2019-03-20T22:34:41.899Z,99.90
2019-03-20T22:37:10.376Z,99.90
2019-03-20T22:40:15.251Z,99.90
2019-03-20T22:42:55.753Z,99.90
2019-03-20T22:46:00.772Z,99.90
2019-03-20T22:48:53.537Z,99.90
2019-03-20T22:51:47.803Z,99.90
2019-03-20T22:54:31.083Z,99.90
2019-03-20T22:57:05.492Z,99.90
2019-03-20T22:59:33.942Z,99.90
2019-03-20T23:02:08.667Z,99.90
2019-03-20T23:04:40.342Z,99.90
2019-03-20T23:07:10.667Z,99.90
2019-03-20T23:09:38.985Z,99.90
2019-03-20T23:12:09.867Z,99.90
2019-03-20T23:14:38.378Z,99.90
2019-03-20T23:17:06.846Z,99.90
2019-03-20T23:19:36.434Z,99.90
2019-03-20T23:22:05.114Z,99.90
2019-03-20T23:24:33.959Z,99.90
2019-03-20T23:27:05.811Z,99.90
2019-03-20T23:29:34.322Z,99.90
2019-03-20T23:32:02.790Z,99.90
2019-03-20T23:34:31.231Z,99.90
2019-03-20T23:36:59.851Z,99.90
2019-03-20T23:39:28.685Z,99.90
2019-03-20T23:41:57.133Z,99.90
2019-03-20T23:44:25.592Z,99.90
2019-03-20T23:46:54.490Z,99.90
2019-03-20T23:49:25.366Z,99.90
2019-03-20T23:51:55.046Z,99.90
2019-03-20T23:54:26.617Z,99.90
2019-03-20T23:56:55.125Z,99.90
2019-03-20T23:59:23.648Z,99.90
